Flight Track Log - Related Links

Times and Time Zones

All times are in EDT time to prevent confusion due to time zone crossing. See the AUB1736 flight status page for this flight to view local times or setup timezone preferences in your user account.

Time Position Orientation Groundspeed Altitude Reporting Facility
EDT Latitude Longitude Course Direction KTS MPH feet Rate Location/Type
Sun 03:46:00 AM 48.0079 12.2485 138° Southeast  Level Estimated
Sun 03:47:00 AM 47.9211 12.3631 138° Southeast  Level Estimated
Sun 03:48:00 AM 47.8342 12.4774 139° Southeast  Level Estimated
Sun 03:49:00 AM 47.7472 12.5913 139° Southeast  Level Estimated
Sun 03:50:00 AM 47.6601 12.7047 139° Southeast  Level Estimated
Sun 03:51:00 AM 47.5729 12.8179 139° Southeast  Level Estimated
Sun 03:52:00 AM 47.4855 12.9306 139° Southeast  Level Estimated
Sun 03:53:00 AM 47.3981 13.0429 139° Southeast  Level Estimated
Sun 03:54:00 AM 47.3105 13.1549 139° Southeast  Level Estimated
Sun 03:55:00 AM 47.2229 13.2665 139° Southeast  Level Estimated
Sun 03:56:00 AM 47.1351 13.3778 139° Southeast  Level Estimated
Sun 03:57:00 AM 47.0472 13.4887 139° Southeast  Level Estimated
Sun 03:58:00 AM 46.9593 13.5992 139° Southeast  Level Estimated
Sun 03:59:00 AM 46.8712 13.7093 139° Southeast  Level Estimated
Sun 04:00:00 AM 46.7830 13.8191 140° Southeast  Level Estimated
Sun 04:01:00 AM 46.6947 13.9285 140° Southeast  Level Estimated
Sun 04:02:00 AM 46.6063 14.0376 140° Southeast  Level Estimated
Sun 04:03:00 AM 46.5177 14.1463 140° Southeast  Level Estimated
Sun 04:04:00 AM 46.4291 14.2547 140° Southeast  Level Estimated
Sun 04:05:00 AM 46.3404 14.3627 140° Southeast  Level Estimated
Sun 04:06:00 AM 46.2516 14.4704 140° Southeast  Level Estimated
Sun 04:07:00 AM 46.1627 14.5777 140° Southeast  Level Estimated
Sun 04:08:00 AM 46.0737 14.6846 140° Southeast  Level Estimated
Sun 04:09:00 AM 45.9846 14.7913 140° Southeast  Level Estimated
Sun 04:10:00 AM 45.8954 14.8975 140° Southeast  Level Estimated
Sun 04:11:00 AM 45.8061 15.0035 140° Southeast  Level Estimated
Sun 04:12:00 AM 45.7167 15.1091 140° Southeast  Level Estimated
Sun 04:13:00 AM 45.6272 15.2143 141° Southeast  Level Estimated
Sun 04:14:00 AM 45.5376 15.3193 141° Southeast  Level Estimated
Sun 04:15:00 AM 45.4478 15.4238 141° Southeast  Level Estimated
Sun 04:16:00 AM 45.3581 15.5281 141° Southeast  Level Estimated
Sun 04:17:00 AM 45.2682 15.6320 141° Southeast  Level Estimated
Sun 04:18:00 AM 45.1782 15.7356 141° Southeast  Level Estimated
Sun 04:19:00 AM 45.0881 15.8389 141° Southeast  Level Estimated
Sun 04:20:00 AM 44.9980 15.9418 141° Southeast  Level Estimated
Sun 04:21:00 AM 44.9077 16.0445 141° Southeast  Level Estimated
Sun 04:22:00 AM 44.8173 16.1468 141° Southeast  Level Estimated
Sun 04:23:00 AM 44.7269 16.2488 141° Southeast  Level Estimated
Sun 04:24:00 AM 44.6364 16.3504 141° Southeast  Level Estimated
Sun 04:25:00 AM 44.5457 16.4517 141° Southeast  Level Estimated
Sun 04:26:00 AM 44.4550 16.5528 142° Southeast  Level Estimated
Sun 04:27:00 AM 44.3642 16.6535 142° Southeast  Level Estimated
Sun 04:28:00 AM 44.2733 16.7539 142° Southeast  Level Estimated
Sun 04:29:00 AM 44.1824 16.8540 142° Southeast  Level Estimated
Sun 04:30:00 AM 44.0913 16.9538 142° Southeast  Level Estimated
Sun 04:31:00 AM 44.0002 17.0532 142° Southeast  Level Estimated
Sun 04:32:00 AM 43.9089 17.1524 142° Southeast  Level Estimated
Sun 04:33:00 AM 43.8176 17.2513 142° Southeast  Level Estimated
Sun 04:34:00 AM 43.7262 17.3499 142° Southeast  Level Estimated
Sun 04:35:00 AM 43.6347 17.4481 142° Southeast  Level Estimated
Sun 04:36:00 AM 43.5431 17.5461 142° Southeast  Level Estimated
Sun 04:37:00 AM 43.4515 17.6438 142° Southeast  Level Estimated
Sun 04:38:00 AM 43.3597 17.7411 142° Southeast  Level Estimated
Sun 04:39:00 AM 43.2679 17.8382 142° Southeast  Level Estimated
Sun 04:40:00 AM 43.1760 17.9350 142° Southeast  Level Estimated
Sun 04:41:00 AM 43.0840 18.0315 143° Southeast  Level Estimated
Sun 04:42:00 AM 42.9919 18.1277 143° Southeast  Level Estimated
Sun 04:43:00 AM 42.8998 18.2236 143° Southeast  Level Estimated
Sun 04:44:00 AM 42.8076 18.3193 143° Southeast  Level Estimated
Sun 04:45:00 AM 42.7152 18.4146 143° Southeast  Level Estimated
Sun 04:46:00 AM 42.6229 18.5097 143° Southeast  Level Estimated
Sun 04:47:00 AM 42.5304 18.6045 143° Southeast  Level Estimated
Sun 04:48:00 AM 42.4379 18.6990 143° Southeast  Level Estimated
Sun 04:49:00 AM 42.3452 18.7932 143° Southeast  Level Estimated
Sun 04:50:00 AM 42.2525 18.8871 143° Southeast  Level Estimated
Sun 04:51:00 AM 42.1598 18.9808 143° Southeast  Level Estimated
Sun 04:52:00 AM 42.0669 19.0742 143° Southeast  Level Estimated
Sun 04:53:00 AM 41.9740 19.1673 143° Southeast  Level Estimated
Sun 04:54:00 AM 41.8810 19.2602 143° Southeast  Level Estimated
Sun 04:55:00 AM 41.7879 19.3528 143° Southeast  Level Estimated
Sun 04:56:00 AM 41.6948 19.4451 143° Southeast  Level Estimated
Sun 04:57:00 AM 41.6016 19.5371 144° Southeast  Level Estimated
Sun 04:58:00 AM 41.5083 19.6289 144° Southeast  Level Estimated
Sun 04:59:00 AM 41.4149 19.7204 144° Southeast  Level Estimated
Sun 05:00:00 AM 41.4147 19.7206 143° Southeast  Level Estimated
Sun 05:01:00 AM 41.4147 19.7206 21° North  Level Estimated
Sun 05:02:00 AM 41.4147 19.7206 21° North  Level Estimated
Sun 05:03:00 AM 41.4147 19.7206 21° North  Level Estimated
Sun 05:04:00 AM 41.4147 19.7206 21° North  Level Estimated
Sun 05:05:00 AM 41.4147 19.7206 21° North  Level Estimated
Sun 05:06:00 AM 41.4147 19.7206 21° North  Level Estimated
Sun 05:07:00 AM 41.4147 19.7206 21° North  Level Estimated
Sun 05:08:00 AM 41.4147 19.7206 21° North  Level Estimated
Sun 05:09:00 AM 41.4147 19.7206 21° North  Level Estimated
Sun 05:10:00 AM 41.4147 19.7206 21° North  Level Estimated
Sun 05:11:00 AM 41.4147 19.7206 21° North  Level Estimated
Sun 05:12:00 AM 41.4147 19.7206 21° North  Level Estimated
Sun 05:13:00 AM 41.4147 19.7206 21° North  Level Estimated

Login

Don't have an account? Register now (free) for customized features, flight alerts, and more!